Flight Track Log - Related Links

Times and Time Zones

All times are in EDT time to prevent confusion due to time zone crossing. See the FFT414 flight status page for this flight to view local times or setup timezone preferences in your user account.

Time Position Orientation Groundspeed Altitude Reporting Facility
EDT Latitude Longitude Course Direction KTS MPH feet Rate Location/Type
Sun 06:24:29 PM 33.9333 -118.4500 252° West 179 206 1,700  Level Southern California TRACON
Sun 06:25:46 PM 33.9106 -118.5325 252° West 222 255 5,100 2,892 Climbing Los Angeles Center
Sun 06:26:48 PM 33.8528 -118.5425 188° South 246 283 8,400 2,323 Climbing Los Angeles Center
Sun 06:27:50 PM 33.8767 -118.4753 67° East 266 306 9,900 1,742 Climbing Los Angeles Center
Sun 06:28:52 PM 33.9478 -118.4089 38° Northeast 317 365 12,000 2,274 Climbing Los Angeles Center
Sun 06:29:54 PM 34.0014 -118.3128 56° Northeast 342 394 14,600 2,468 Climbing Los Angeles Center
Sun 06:30:56 PM 34.0594 -118.2108 55° Northeast 361 415 17,100 2,323 Climbing Los Angeles Center
Sun 06:31:58 PM 34.1192 -118.1067 55° Northeast 374 430 19,400 2,129 Climbing Los Angeles Center
Sun 06:33:00 PM 34.1814 -117.9956 56° Northeast 393 452 21,500 1,935 Climbing Los Angeles Center
Sun 06:34:02 PM 34.2450 -117.8814 56° Northeast 408 470 23,400 1,984 Climbing Los Angeles Center
Sun 06:35:04 PM 34.3100 -117.7636 56° Northeast 419 482 25,600 2,032 Climbing Los Angeles Center
Sun 06:36:06 PM 34.3892 -117.6242 55° Northeast 421 484 27,600 1,597 Climbing Los Angeles Center
Sun 06:37:08 PM 34.4519 -117.5275 52° Northeast 428 493 28,900 1,248 Climbing Los Angeles Center
Sun 06:38:11 PM 34.5469 -117.3947 49° Northeast 437 503 30,200 1,152 Climbing Los Angeles Center
Sun 06:39:13 PM 34.6264 -117.2789 50° Northeast 447 514 31,300 1,065 Climbing Los Angeles Center
Sun 06:40:15 PM 34.7097 -117.1617 49° Northeast 458 527 32,400 1,065 Climbing Los Angeles Center
Sun 06:41:17 PM 34.7936 -117.0403 50° Northeast 469 540 33,500 1,016 Climbing Los Angeles Center
Sun 06:42:19 PM 34.8786 -116.9186 50° Northeast 474 545 34,500 968 Climbing Los Angeles Center
Sun 06:43:21 PM 34.9828 -116.7703 49° Northeast 481 554 35,500 968 Climbing Los Angeles Center
Sun 06:44:23 PM 35.0706 -116.6431 50° Northeast 490 564 36,500 1,113 Climbing Los Angeles Center
Sun 06:45:25 PM 35.1564 -116.5181 50° Northeast 487 560 37,800 1,065 Climbing Los Angeles Center
Sun 06:46:27 PM 35.2439 -116.3953 49° Northeast 482 555 38,700 581 Climbing Los Angeles Center
Sun 06:47:29 PM 35.3267 -116.2728 50° Northeast 471 542 39,000 144 Climbing Los Angeles Center
Sun 06:48:32 PM 35.4264 -116.1233 51° Northeast 475 547 39,000  Level Los Angeles Center
Sun 06:49:33 PM 35.5153 -115.9994 49° Northeast 484 557 39,000  Level Los Angeles Center
Sun 06:50:36 PM 35.5931 -115.8722 53° Northeast 478 550 39,000  Level Los Angeles Center
Sun 06:51:38 PM 35.6525 -115.7217 64° Northeast 491 565 39,000  Level Los Angeles Center
Sun 06:52:40 PM 35.7231 -115.5411 64° Northeast 492 566 39,000  Level Los Angeles Center
Sun 06:53:42 PM 35.7825 -115.3889 64° Northeast 497 572 39,000 48 Level Los Angeles Center
Sun 06:54:44 PM 35.8419 -115.2353 64° Northeast 501 577 39,100  Climbing Los Angeles Center
Sun 06:55:46 PM 35.8981 -115.0828 66° East 496 571 39,000 -48 Descending Los Angeles Center
Sun 06:56:48 PM 35.9575 -114.9283 65° Northeast 502 578 39,000  Level Los Angeles Center
Sun 06:57:50 PM 36.0294 -114.7431 64° Northeast 502 578 39,000  Level Los Angeles Center
Sun 06:58:52 PM 36.0872 -114.5886 65° Northeast 500 575 39,000  Level Los Angeles Center
Sun 06:59:54 PM 36.1453 -114.4333 65° Northeast 500 575 39,000  Level Los Angeles Center
Sun 07:00:56 PM 36.2053 -114.2775 64° Northeast 503 579 39,000  Level Los Angeles Center
Sun 07:02:12 PM 36.2747 -114.0900 65° Northeast 502 578 39,000  Level Los Angeles Center
Sun 07:03:13 PM 36.3328 -113.9314 66° East 506 582 39,000  Level Los Angeles Center
Sun 07:04:15 PM 36.4025 -113.7442 65° Northeast 500 575 39,000  Level Los Angeles Center
Sun 07:05:17 PM 36.4606 -113.5867 65° Northeast 501 577 39,000  Level Los Angeles Center
Sun 07:06:19 PM 36.5125 -113.4469 65° Northeast 498 573 39,000  Level Los Angeles Center
Sun 07:07:21 PM 36.5803 -113.2583 66° East 500 575 39,000 48 Level Los Angeles Center
Sun 07:08:24 PM 36.6375 -113.1006 66° East 503 579 39,100 48 Climbing Los Angeles Center
Sun 07:09:26 PM 36.6953 -112.9411 66° East 507 583 39,100 -48 Level Los Angeles Center
Sun 07:10:28 PM 36.7531 -112.7808 66° East 509 586 39,000 -48 Descending Los Angeles Center
Sun 07:11:30 PM 36.8094 -112.6219 66° East 507 583 39,000  Level Los Angeles Center
Sun 07:12:32 PM 36.8778 -112.4325 66° East 504 580 39,000  Level Los Angeles Center
Sun 07:13:34 PM 36.9331 -112.2756 66° East 499 574 39,000  Level Los Angeles Center
Sun 07:14:36 PM 36.9897 -112.1172 66° East 502 578 39,000  Level Los Angeles Center
Sun 07:15:38 PM 37.0458 -111.9606 66° East 499 574 39,000  Level Los Angeles Center
Sun 07:16:40 PM 37.1006 -111.8022 67° East 498 573 39,000  Level Los Angeles Center
Sun 07:17:42 PM 37.1678 -111.6100 66° East 503 579 39,000 48 Level Los Angeles Center
Sun 07:18:44 PM 37.2197 -111.4514 68° East 497 572 39,100  Climbing Los Angeles Center
Sun 07:19:47 PM 37.2753 -111.2881 67° East 507 583 39,000 -48 Descending Los Angeles Center
Sun 07:20:50 PM 37.3283 -111.1253 68° East 508 585 39,000  Level Denver Center
Sun 07:21:52 PM 37.3850 -110.9614 66° East 511 588 39,000  Level Denver Center
Sun 07:22:54 PM 37.4497 -110.7672 67° East 505 581 39,000  Level Denver Center
Sun 07:23:56 PM 37.5031 -110.6044 68° East 504 580 39,000  Level Denver Center
Sun 07:24:58 PM 37.5592 -110.4369 67° East 504 580 39,000 48 Level Denver Center
Sun 07:26:00 PM 37.6106 -110.2797 68° East 505 581 39,100  Climbing Denver Center
Sun 07:27:02 PM 37.6714 -110.0947 67° East 509 586 39,000 -48 Descending Denver Center
Sun 07:28:04 PM 37.7228 -109.9367 68° East 509 586 39,000  Level Denver Center
Sun 07:29:06 PM 37.7828 -109.7525 68° East 509 586 39,000  Level Denver Center
Sun 07:30:08 PM 37.8331 -109.5939 68° East 507 583 39,000  Level Denver Center
Sun 07:31:10 PM 37.8919 -109.4078 68° East 509 586 39,000  Level Denver Center
Sun 07:32:12 PM 37.9431 -109.2489 68° East 508 585 39,000  Level Denver Center
Sun 07:33:14 PM 38.0011 -109.0644 68° East 505 581 39,000  Level Denver Center
Sun 07:34:16 PM 38.0514 -108.9036 68° East 509 586 39,000  Level Denver Center
Sun 07:35:18 PM 38.1036 -108.7333 69° East 513 590 39,000  Level Denver Center
Sun 07:36:20 PM 38.1622 -108.5467 68° East 510 587 39,000  Level Denver Center
Sun 07:37:22 PM 38.2119 -108.3889 68° East 506 582 39,000  Level Denver Center
Sun 07:38:24 PM 38.2694 -108.1978 69° East 513 590 39,000  Level Denver Center
Sun 07:39:26 PM 38.3186 -108.0367 69° East 513 590 39,000  Level Denver Center
Sun 07:40:28 PM 38.3758 -107.8472 69° East 515 593 39,000  Level Denver Center
Sun 07:41:30 PM 38.4256 -107.6839 69° East 517 595 39,000  Level Denver Center
Sun 07:42:32 PM 38.4936 -107.5019 64° Northeast 513 590 39,000 -48 Level Denver Center
Sun 07:43:34 PM 38.5614 -107.3514 60° Northeast 512 589 38,900 -290 Descending Denver Center
Sun 07:44:36 PM 38.6258 -107.2067 60° Northeast 490 564 38,400 -1,016 Descending Denver Center
Sun 07:45:38 PM 38.6975 -107.0458 60° Northeast 492 566 36,800 -1,839 Descending Denver Center
Sun 07:46:40 PM 38.7681 -106.8853 61° Northeast 515 593 34,600 -1,897 Descending Denver Center
Sun 07:47:54 PM 38.8414 -106.7192 60° Northeast 534 615 32,500 -1,632 Descending Denver Center
Sun 07:48:56 PM 38.9433 -106.4986 59° Northeast 506 582 30,900 -1,790 Descending Denver Center
Sun 07:49:58 PM 39.0078 -106.3569 60° Northeast 486 559 28,800 -1,839 Descending Denver Center
Sun 07:51:00 PM 39.0594 -106.2431 60° Northeast 470 541 27,100 -2,081 Descending Denver Center
Sun 07:52:02 PM 39.1375 -106.0686 60° Northeast 453 521 24,500 -2,177 Descending Denver Center
Sun 07:53:04 PM 39.1972 -105.9314 61° Northeast 438 504 22,600 -1,839 Descending Denver Center
Sun 07:54:06 PM 39.2550 -105.7992 61° Northeast 421 484 20,700 -1,742 Descending Denver Center
Sun 07:55:08 PM 39.3206 -105.6497 60° Northeast 409 471 19,000 -1,597 Descending Denver Center
Sun 07:56:10 PM 39.3744 -105.5283 60° Northeast 391 450 17,400 -1,258 Descending Denver Center
Sun 07:57:12 PM 39.3981 -105.4056 76° East 368 423 16,400 -1,161 Descending Denver Center
Sun 07:58:14 PM 39.4047 -105.2731 86° East 349 402 15,000 -1,181 Descending Denver Center
Sun 07:59:19 PM 39.4103 -105.1431 87° East 341 392 13,900 -756 Descending Denver Center
Sun 08:00:21 PM 39.4153 -105.0328 87° East 313 360 13,400 -484 Descending Denver Center
Sun 08:01:23 PM 39.4225 -104.9308 85° East 290 334 12,900 -581 Descending Denver Center
Sun 08:02:25 PM 39.4503 -104.8264 71° East 284 327 12,200 -927 Descending Denver Center
Sun 08:03:26 PM 39.4744 -104.7347 71° East 270 311 11,000 -976 Descending Denver Center
Sun 08:04:28 PM 39.5306 -104.6736 40° Northeast 255 293 10,200 -484 Descending Denver Center
Sun 08:05:30 PM 39.5989 -104.6617 North 247 284 10,000 -435 Descending Denver Center
Sun 08:06:32 PM 39.6594 -104.6628 359° North 221 254 9,300 -968 Descending Denver Center
Sun 08:07:34 PM 39.7164 -104.6619 North 195 224 8,000 -1,210 Descending Denver Center
Sun 08:08:36 PM 39.7706 -104.6619 360° North 193 222 6,800 -1,065 Descending Denver Center
Sun 08:09:38 PM 39.8136 -104.6611 North 145 167 5,800 -683 Descending Denver Center
Sun 08:10:39 PM 39.8442 -104.6614 360° North 129 148 5,400 -393 Descending Denver Center
Sun 08:12:00 PM 39.8500 -104.6667 10° North  Level FlightAware Approximate

Login

Don't have an account? Register now (free) for customized features, flight alerts, and more!